sensor_id;sensor_type;location;lat;lon;timestamp;temperature;humidity
15072;DHT22;7635;56.696;13.002;2023-06-22T00:00:09;17.30;99.90
15072;DHT22;7635;56.696;13.002;2023-06-22T00:02:37;17.30;99.90
15072;DHT22;7635;56.696;13.002;2023-06-22T00:05:04;17.30;99.90
15072;DHT22;7635;56.696;13.002;2023-06-22T00:07:31;17.30;99.90
15072;DHT22;7635;56.696;13.002;2023-06-22T00:09:59;17.40;99.90
15072;DHT22;7635;56.696;13.002;2023-06-22T00:12:26;17.40;99.90
15072;DHT22;7635;56.696;13.002;2023-06-22T00:14:52;17.40;99.90
15072;DHT22;7635;56.696;13.002;2023-06-22T00:17:19;17.40;99.90
15072;DHT22;7635;56.696;13.002;2023-06-22T00:19:47;17.40;99.90
15072;DHT22;7635;56.696;13.002;2023-06-22T00:22:18;17.40;99.90
15072;DHT22;7635;56.696;13.002;2023-06-22T00:24:47;17.40;99.90
15072;DHT22;7635;56.696;13.002;2023-06-22T00:27:15;17.40;99.90
15072;DHT22;7635;56.696;13.002;2023-06-22T00:29:41;17.40;99.90
15072;DHT22;7635;56.696;13.002;2023-06-22T00:32:08;17.40;99.90
15072;DHT22;7635;56.696;13.002;2023-06-22T00:34:35;17.40;99.90
15072;DHT22;7635;56.696;13.002;2023-06-22T00:37:02;17.40;99.90
15072;DHT22;7635;56.696;13.002;2023-06-22T00:39:28;17.40;99.90
15072;DHT22;7635;56.696;13.002;2023-06-22T00:41:55;17.40;99.90
15072;DHT22;7635;56.696;13.002;2023-06-22T00:44:23;17.40;99.90
15072;DHT22;7635;56.696;13.002;2023-06-22T00:46:50;17.40;99.90
15072;DHT22;7635;56.696;13.002;2023-06-22T00:49:17;17.40;99.90
15072;DHT22;7635;56.696;13.002;2023-06-22T00:51:44;17.40;99.90
15072;DHT22;7635;56.696;13.002;2023-06-22T00:54:11;17.40;99.90
15072;DHT22;7635;56.696;13.002;2023-06-22T00:56:39;17.50;99.90
15072;DHT22;7635;56.696;13.002;2023-06-22T00:59:06;17.50;99.90
15072;DHT22;7635;56.696;13.002;2023-06-22T01:01:34;17.50;99.90
15072;DHT22;7635;56.696;13.002;2023-06-22T01:04:06;17.50;99.90
15072;DHT22;7635;56.696;13.002;2023-06-22T01:06:38;17.50;99.90
15072;DHT22;7635;56.696;13.002;2023-06-22T01:09:08;17.50;99.90
15072;DHT22;7635;56.696;13.002;2023-06-22T01:11:44;17.50;99.90
15072;DHT22;7635;56.696;13.002;2023-06-22T01:14:15;17.40;99.90
15072;DHT22;7635;56.696;13.002;2023-06-22T01:16:47;17.50;99.90
15072;DHT22;7635;56.696;13.002;2023-06-22T01:19:29;17.50;99.90
15072;DHT22;7635;56.696;13.002;2023-06-22T01:22:02;17.50;99.90
15072;DHT22;7635;56.696;13.002;2023-06-22T01:24:32;17.50;99.90
15072;DHT22;7635;56.696;13.002;2023-06-22T01:27:12;17.40;99.90
15072;DHT22;7635;56.696;13.002;2023-06-22T01:29:49;17.40;99.90
15072;DHT22;7635;56.696;13.002;2023-06-22T01:32:17;17.30;99.90
15072;DHT22;7635;56.696;13.002;2023-06-22T01:34:45;17.30;99.90
15072;DHT22;7635;56.696;13.002;2023-06-22T01:37:14;17.20;99.90
15072;DHT22;7635;56.696;13.002;2023-06-22T01:39:41;17.20;99.90
15072;DHT22;7635;56.696;13.002;2023-06-22T01:42:08;17.10;99.90
15072;DHT22;7635;56.696;13.002;2023-06-22T01:44:36;17.10;99.90
15072;DHT22;7635;56.696;13.002;2023-06-22T01:47:06;17.00;99.90
15072;DHT22;7635;56.696;13.002;2023-06-22T01:49:33;17.00;99.90
15072;DHT22;7635;56.696;13.002;2023-06-22T01:52:00;16.90;99.90
15072;DHT22;7635;56.696;13.002;2023-06-22T01:54:27;16.90;99.90
15072;DHT22;7635;56.696;13.002;2023-06-22T01:56:53;16.80;99.90
15072;DHT22;7635;56.696;13.002;2023-06-22T01:59:26;16.80;99.90
15072;DHT22;7635;56.696;13.002;2023-06-22T02:02:00;16.80;99.90
15072;DHT22;7635;56.696;13.002;2023-06-22T02:04:34;16.80;99.90
15072;DHT22;7635;56.696;13.002;2023-06-22T02:07:05;16.80;99.90
15072;DHT22;7635;56.696;13.002;2023-06-22T02:09:35;16.70;99.90
15072;DHT22;7635;56.696;13.002;2023-06-22T02:12:05;16.70;99.90
15072;DHT22;7635;56.696;13.002;2023-06-22T02:14:33;16.70;99.90
15072;DHT22;7635;56.696;13.002;2023-06-22T02:17:01;16.70;99.90
15072;DHT22;7635;56.696;13.002;2023-06-22T02:19:30;16.60;99.90
15072;DHT22;7635;56.696;13.002;2023-06-22T02:21:58;16.60;99.90
15072;DHT22;7635;56.696;13.002;2023-06-22T02:24:25;16.60;99.90
15072;DHT22;7635;56.696;13.002;2023-06-22T02:26:51;16.60;99.90
15072;DHT22;7635;56.696;13.002;2023-06-22T02:29:18;16.60;99.90
15072;DHT22;7635;56.696;13.002;2023-06-22T02:31:45;16.60;99.90
15072;DHT22;7635;56.696;13.002;2023-06-22T02:34:12;16.60;99.90
15072;DHT22;7635;56.696;13.002;2023-06-22T02:36:45;16.60;99.90
15072;DHT22;7635;56.696;13.002;2023-06-22T02:39:16;16.60;99.90
15072;DHT22;7635;56.696;13.002;2023-06-22T02:41:43;16.60;99.90
15072;DHT22;7635;56.696;13.002;2023-06-22T02:44:09;16.70;99.90
15072;DHT22;7635;56.696;13.002;2023-06-22T02:46:36;16.70;99.90
15072;DHT22;7635;56.696;13.002;2023-06-22T02:49:03;16.70;99.90
15072;DHT22;7635;56.696;13.002;2023-06-22T02:51:32;16.70;99.90
15072;DHT22;7635;56.696;13.002;2023-06-22T02:54:00;16.80;99.90
15072;DHT22;7635;56.696;13.002;2023-06-22T02:56:28;16.80;99.90
15072;DHT22;7635;56.696;13.002;2023-06-22T02:58:56;16.80;99.90
15072;DHT22;7635;56.696;13.002;2023-06-22T03:01:26;16.90;99.90
15072;DHT22;7635;56.696;13.002;2023-06-22T03:03:53;16.90;99.90
15072;DHT22;7635;56.696;13.002;2023-06-22T03:06:20;16.90;99.90
15072;DHT22;7635;56.696;13.002;2023-06-22T03:08:49;17.00;99.90
15072;DHT22;7635;56.696;13.002;2023-06-22T03:11:17;17.00;99.90
15072;DHT22;7635;56.696;13.002;2023-06-22T03:13:44;17.00;99.90
15072;DHT22;7635;56.696;13.002;2023-06-22T03:16:11;17.10;99.90
15072;DHT22;7635;56.696;13.002;2023-06-22T03:18:38;17.10;99.90
15072;DHT22;7635;56.696;13.002;2023-06-22T03:21:05;17.10;99.90
15072;DHT22;7635;56.696;13.002;2023-06-22T03:23:31;17.10;99.90
15072;DHT22;7635;56.696;13.002;2023-06-22T03:25:58;17.20;99.90
15072;DHT22;7635;56.696;13.002;2023-06-22T03:28:26;17.20;99.90
15072;DHT22;7635;56.696;13.002;2023-06-22T03:30:53;17.20;99.90
15072;DHT22;7635;56.696;13.002;2023-06-22T03:33:20;17.20;99.90
15072;DHT22;7635;56.696;13.002;2023-06-22T03:35:47;17.20;99.90
15072;DHT22;7635;56.696;13.002;2023-06-22T03:38:14;17.20;99.90
15072;DHT22;7635;56.696;13.002;2023-06-22T03:40:41;17.30;99.90
15072;DHT22;7635;56.696;13.002;2023-06-22T03:43:07;17.30;99.90
15072;DHT22;7635;56.696;13.002;2023-06-22T03:45:35;17.30;99.90
15072;DHT22;7635;56.696;13.002;2023-06-22T03:48:02;17.40;99.90
15072;DHT22;7635;56.696;13.002;2023-06-22T03:50:29;17.40;99.90
15072;DHT22;7635;56.696;13.002;2023-06-22T03:52:56;17.40;99.90
15072;DHT22;7635;56.696;13.002;2023-06-22T03:55:23;17.40;99.90
15072;DHT22;7635;56.696;13.002;2023-06-22T03:57:49;17.40;99.90
15072;DHT22;7635;56.696;13.002;2023-06-22T04:00:16;17.40;99.90
15072;DHT22;7635;56.696;13.002;2023-06-22T04:02:44;17.40;99.90
15072;DHT22;7635;56.696;13.002;2023-06-22T04:05:11;17.40;99.90
15072;DHT22;7635;56.696;13.002;2023-06-22T04:07:38;17.40;99.90
15072;DHT22;7635;56.696;13.002;2023-06-22T04:10:05;17.50;99.90
15072;DHT22;7635;56.696;13.002;2023-06-22T04:12:32;17.60;99.90
15072;DHT22;7635;56.696;13.002;2023-06-22T04:14:59;17.70;99.90
15072;DHT22;7635;56.696;13.002;2023-06-22T04:17:25;17.80;99.90
15072;DHT22;7635;56.696;13.002;2023-06-22T04:19:53;17.90;99.90
15072;DHT22;7635;56.696;13.002;2023-06-22T04:22:20;17.90;99.90
15072;DHT22;7635;56.696;13.002;2023-06-22T04:24:47;18.00;99.90
15072;DHT22;7635;56.696;13.002;2023-06-22T04:27:13;18.00;99.90
15072;DHT22;7635;56.696;13.002;2023-06-22T04:29:40;18.00;99.90
15072;DHT22;7635;56.696;13.002;2023-06-22T04:32:14;18.10;99.90
15072;DHT22;7635;56.696;13.002;2023-06-22T04:34:41;18.10;99.90
15072;DHT22;7635;56.696;13.002;2023-06-22T04:37:09;18.20;99.90
15072;DHT22;7635;56.696;13.002;2023-06-22T04:39:41;18.20;99.90
15072;DHT22;7635;56.696;13.002;2023-06-22T04:42:08;18.20;99.90
15072;DHT22;7635;56.696;13.002;2023-06-22T04:44:35;18.20;99.90
15072;DHT22;7635;56.696;13.002;2023-06-22T04:47:02;18.20;99.90
15072;DHT22;7635;56.696;13.002;2023-06-22T04:49:34;18.20;99.90
15072;DHT22;7635;56.696;13.002;2023-06-22T04:52:03;18.20;99.90
15072;DHT22;7635;56.696;13.002;2023-06-22T04:54:32;18.10;99.90
15072;DHT22;7635;56.696;13.002;2023-06-22T04:57:00;18.10;99.90
15072;DHT22;7635;56.696;13.002;2023-06-22T04:59:28;18.20;99.90
15072;DHT22;7635;56.696;13.002;2023-06-22T05:01:55;18.20;99.90
15072;DHT22;7635;56.696;13.002;2023-06-22T05:04:22;18.30;99.90
15072;DHT22;7635;56.696;13.002;2023-06-22T05:06:50;18.40;99.90
15072;DHT22;7635;56.696;13.002;2023-06-22T05:09:16;18.40;99.90
15072;DHT22;7635;56.696;13.002;2023-06-22T05:11:45;18.50;99.90
15072;DHT22;7635;56.696;13.002;2023-06-22T05:14:12;18.70;99.90
15072;DHT22;7635;56.696;13.002;2023-06-22T05:16:41;18.90;99.90
15072;DHT22;7635;56.696;13.002;2023-06-22T05:19:08;19.20;99.90
15072;DHT22;7635;56.696;13.002;2023-06-22T05:21:35;19.50;99.90
15072;DHT22;7635;56.696;13.002;2023-06-22T05:24:02;19.80;99.90
15072;DHT22;7635;56.696;13.002;2023-06-22T05:26:30;19.90;99.90
15072;DHT22;7635;56.696;13.002;2023-06-22T05:29:01;19.90;99.90
15072;DHT22;7635;56.696;13.002;2023-06-22T05:31:28;19.90;99.90
15072;DHT22;7635;56.696;13.002;2023-06-22T05:33:55;19.80;99.90
15072;DHT22;7635;56.696;13.002;2023-06-22T05:36:22;19.70;99.90
15072;DHT22;7635;56.696;13.002;2023-06-22T05:38:51;19.70;99.90
15072;DHT22;7635;56.696;13.002;2023-06-22T05:41:17;19.60;99.90
15072;DHT22;7635;56.696;13.002;2023-06-22T05:43:44;19.60;99.90
15072;DHT22;7635;56.696;13.002;2023-06-22T05:46:12;19.60;99.90
15072;DHT22;7635;56.696;13.002;2023-06-22T05:48:39;19.60;99.90
15072;DHT22;7635;56.696;13.002;2023-06-22T05:51:06;19.60;99.90
15072;DHT22;7635;56.696;13.002;2023-06-22T05:53:32;19.70;99.90
15072;DHT22;7635;56.696;13.002;2023-06-22T05:55:59;19.80;99.90
15072;DHT22;7635;56.696;13.002;2023-06-22T05:58:26;19.80;99.90
15072;DHT22;7635;56.696;13.002;2023-06-22T06:00:52;20.10;99.90
15072;DHT22;7635;56.696;13.002;2023-06-22T06:03:22;20.30;99.90
15072;DHT22;7635;56.696;13.002;2023-06-22T06:05:48;20.50;99.90
15072;DHT22;7635;56.696;13.002;2023-06-22T06:08:15;20.60;99.90
15072;DHT22;7635;56.696;13.002;2023-06-22T06:10:42;20.60;99.90
15072;DHT22;7635;56.696;13.002;2023-06-22T06:13:09;20.50;99.90
15072;DHT22;7635;56.696;13.002;2023-06-22T06:15:35;20.30;99.90
15072;DHT22;7635;56.696;13.002;2023-06-22T06:18:02;20.30;99.90
15072;DHT22;7635;56.696;13.002;2023-06-22T06:20:32;20.20;99.90
15072;DHT22;7635;56.696;13.002;2023-06-22T06:22:59;20.10;99.90
15072;DHT22;7635;56.696;13.002;2023-06-22T06:25:25;20.10;99.90
15072;DHT22;7635;56.696;13.002;2023-06-22T06:27:52;20.00;99.90
15072;DHT22;7635;56.696;13.002;2023-06-22T06:30:20;20.00;99.90
15072;DHT22;7635;56.696;13.002;2023-06-22T06:32:47;20.00;99.90
15072;DHT22;7635;56.696;13.002;2023-06-22T06:35:15;19.90;99.90
15072;DHT22;7635;56.696;13.002;2023-06-22T06:37:44;20.00;99.90
15072;DHT22;7635;56.696;13.002;2023-06-22T06:40:13;20.00;99.90
15072;DHT22;7635;56.696;13.002;2023-06-22T06:42:41;20.20;99.90
15072;DHT22;7635;56.696;13.002;2023-06-22T06:45:10;20.40;99.90
15072;DHT22;7635;56.696;13.002;2023-06-22T06:47:37;20.50;99.90
15072;DHT22;7635;56.696;13.002;2023-06-22T06:50:05;20.60;99.90
15072;DHT22;7635;56.696;13.002;2023-06-22T06:52:32;20.60;99.90
15072;DHT22;7635;56.696;13.002;2023-06-22T06:55:00;20.50;99.90
15072;DHT22;7635;56.696;13.002;2023-06-22T06:57:27;20.50;99.90
15072;DHT22;7635;56.696;13.002;2023-06-22T06:59:54;20.50;99.90
15072;DHT22;7635;56.696;13.002;2023-06-22T07:02:22;20.50;99.90
15072;DHT22;7635;56.696;13.002;2023-06-22T07:04:49;20.50;99.90
15072;DHT22;7635;56.696;13.002;2023-06-22T07:07:16;20.40;99.90
15072;DHT22;7635;56.696;13.002;2023-06-22T07:09:43;20.30;99.90
15072;DHT22;7635;56.696;13.002;2023-06-22T07:12:11;20.30;99.90
15072;DHT22;7635;56.696;13.002;2023-06-22T07:14:38;20.50;99.90
15072;DHT22;7635;56.696;13.002;2023-06-22T07:17:04;20.90;99.90
15072;DHT22;7635;56.696;13.002;2023-06-22T07:19:33;21.40;99.90
15072;DHT22;7635;56.696;13.002;2023-06-22T07:21:59;22.00;99.90
15072;DHT22;7635;56.696;13.002;2023-06-22T07:24:26;22.10;99.90
15072;DHT22;7635;56.696;13.002;2023-06-22T07:26:53;22.10;99.90
15072;DHT22;7635;56.696;13.002;2023-06-22T07:29:21;22.00;99.90
15072;DHT22;7635;56.696;13.002;2023-06-22T07:31:49;21.90;99.90
15072;DHT22;7635;56.696;13.002;2023-06-22T07:34:16;21.90;99.90
15072;DHT22;7635;56.696;13.002;2023-06-22T07:36:44;22.40;99.90
15072;DHT22;7635;56.696;13.002;2023-06-22T07:39:11;23.10;99.90
15072;DHT22;7635;56.696;13.002;2023-06-22T07:41:39;23.70;99.90
15072;DHT22;7635;56.696;13.002;2023-06-22T07:44:06;23.70;99.90
15072;DHT22;7635;56.696;13.002;2023-06-22T07:46:34;23.60;99.90
15072;DHT22;7635;56.696;13.002;2023-06-22T07:49:01;23.30;99.90
15072;DHT22;7635;56.696;13.002;2023-06-22T07:51:28;23.10;99.90
15072;DHT22;7635;56.696;13.002;2023-06-22T07:53:55;22.80;99.90
15072;DHT22;7635;56.696;13.002;2023-06-22T07:56:22;22.50;99.90
15072;DHT22;7635;56.696;13.002;2023-06-22T07:58:48;22.30;99.90
15072;DHT22;7635;56.696;13.002;2023-06-22T08:01:15;22.60;99.90
15072;DHT22;7635;56.696;13.002;2023-06-22T08:03:43;22.80;99.90
15072;DHT22;7635;56.696;13.002;2023-06-22T08:06:10;23.00;99.90
15072;DHT22;7635;56.696;13.002;2023-06-22T08:08:37;23.30;99.90
15072;DHT22;7635;56.696;13.002;2023-06-22T08:11:04;23.20;99.90
15072;DHT22;7635;56.696;13.002;2023-06-22T08:13:31;23.00;99.90
15072;DHT22;7635;56.696;13.002;2023-06-22T08:15:58;23.00;99.90
15072;DHT22;7635;56.696;13.002;2023-06-22T08:18:24;23.60;99.90
15072;DHT22;7635;56.696;13.002;2023-06-22T08:20:52;24.40;99.90
15072;DHT22;7635;56.696;13.002;2023-06-22T08:23:19;24.80;99.90
15072;DHT22;7635;56.696;13.002;2023-06-22T08:25:46;25.10;99.90
15072;DHT22;7635;56.696;13.002;2023-06-22T08:28:13;25.50;99.90
15072;DHT22;7635;56.696;13.002;2023-06-22T08:30:40;26.00;99.90
15072;DHT22;7635;56.696;13.002;2023-06-22T08:33:07;26.50;99.90
15072;DHT22;7635;56.696;13.002;2023-06-22T08:35:33;26.70;99.90
15072;DHT22;7635;56.696;13.002;2023-06-22T08:38:01;26.50;99.90
15072;DHT22;7635;56.696;13.002;2023-06-22T08:40:28;26.00;99.90
15072;DHT22;7635;56.696;13.002;2023-06-22T08:42:55;25.60;99.90
15072;DHT22;7635;56.696;13.002;2023-06-22T08:45:22;25.60;99.90
15072;DHT22;7635;56.696;13.002;2023-06-22T08:47:49;26.10;99.90
15072;DHT22;7635;56.696;13.002;2023-06-22T08:50:15;26.50;99.90
15072;DHT22;7635;56.696;13.002;2023-06-22T08:52:42;27.00;99.90
15072;DHT22;7635;56.696;13.002;2023-06-22T08:55:10;27.00;99.90
15072;DHT22;7635;56.696;13.002;2023-06-22T08:57:37;26.90;99.90
15072;DHT22;7635;56.696;13.002;2023-06-22T09:00:06;26.80;99.90
15072;DHT22;7635;56.696;13.002;2023-06-22T09:02:40;26.70;99.90
15072;DHT22;7635;56.696;13.002;2023-06-22T09:05:08;26.30;99.90
15072;DHT22;7635;56.696;13.002;2023-06-22T09:07:34;26.50;99.90
15072;DHT22;7635;56.696;13.002;2023-06-22T09:10:01;26.80;99.90
15072;DHT22;7635;56.696;13.002;2023-06-22T09:12:31;26.80;99.90
15072;DHT22;7635;56.696;13.002;2023-06-22T09:14:59;26.50;99.90
15072;DHT22;7635;56.696;13.002;2023-06-22T09:17:26;26.40;99.90
15072;DHT22;7635;56.696;13.002;2023-06-22T09:19:53;26.20;99.90
15072;DHT22;7635;56.696;13.002;2023-06-22T09:22:20;25.70;99.90
15072;DHT22;7635;56.696;13.002;2023-06-22T09:24:47;25.80;99.90
15072;DHT22;7635;56.696;13.002;2023-06-22T09:27:13;26.40;99.90
15072;DHT22;7635;56.696;13.002;2023-06-22T09:29:41;26.80;99.90
15072;DHT22;7635;56.696;13.002;2023-06-22T09:32:08;27.20;99.90
15072;DHT22;7635;56.696;13.002;2023-06-22T09:34:35;26.90;99.90
15072;DHT22;7635;56.696;13.002;2023-06-22T09:37:02;27.00;99.90
15072;DHT22;7635;56.696;13.002;2023-06-22T09:39:28;27.30;99.90
15072;DHT22;7635;56.696;13.002;2023-06-22T09:41:57;27.10;99.90
15072;DHT22;7635;56.696;13.002;2023-06-22T09:44:24;26.90;99.90
15072;DHT22;7635;56.696;13.002;2023-06-22T09:46:52;27.00;99.90
15072;DHT22;7635;56.696;13.002;2023-06-22T09:49:19;27.20;99.90
15072;DHT22;7635;56.696;13.002;2023-06-22T09:51:46;27.30;99.90
15072;DHT22;7635;56.696;13.002;2023-06-22T09:54:12;27.20;99.90
15072;DHT22;7635;56.696;13.002;2023-06-22T09:56:39;27.40;99.90
15072;DHT22;7635;56.696;13.002;2023-06-22T09:59:06;27.50;99.90
15072;DHT22;7635;56.696;13.002;2023-06-22T10:01:33;27.40;99.90
15072;DHT22;7635;56.696;13.002;2023-06-22T10:04:02;27.70;99.90
15072;DHT22;7635;56.696;13.002;2023-06-22T10:06:29;27.30;99.90
15072;DHT22;7635;56.696;13.002;2023-06-22T10:08:55;27.30;99.90
15072;DHT22;7635;56.696;13.002;2023-06-22T10:11:22;27.30;99.90
15072;DHT22;7635;56.696;13.002;2023-06-22T10:13:54;27.80;99.90
15072;DHT22;7635;56.696;13.002;2023-06-22T10:16:21;27.80;99.90
15072;DHT22;7635;56.696;13.002;2023-06-22T10:18:47;27.70;99.90
15072;DHT22;7635;56.696;13.002;2023-06-22T10:21:15;27.70;99.90
15072;DHT22;7635;56.696;13.002;2023-06-22T10:23:42;27.50;99.90
15072;DHT22;7635;56.696;13.002;2023-06-22T10:26:09;27.60;99.90
15072;DHT22;7635;56.696;13.002;2023-06-22T10:28:35;27.80;99.90
15072;DHT22;7635;56.696;13.002;2023-06-22T10:31:02;27.50;99.90
15072;DHT22;7635;56.696;13.002;2023-06-22T10:33:29;27.40;99.90
15072;DHT22;7635;56.696;13.002;2023-06-22T10:35:55;27.30;99.90
15072;DHT22;7635;56.696;13.002;2023-06-22T10:38:23;27.60;99.90
15072;DHT22;7635;56.696;13.002;2023-06-22T10:40:50;27.50;99.90
15072;DHT22;7635;56.696;13.002;2023-06-22T10:43:17;27.60;99.90
15072;DHT22;7635;56.696;13.002;2023-06-22T10:45:45;27.50;99.90
15072;DHT22;7635;56.696;13.002;2023-06-22T10:48:12;27.60;99.90
15072;DHT22;7635;56.696;13.002;2023-06-22T10:50:38;27.50;99.90
15072;DHT22;7635;56.696;13.002;2023-06-22T10:53:05;27.40;99.90
15072;DHT22;7635;56.696;13.002;2023-06-22T10:55:33;27.60;99.90
15072;DHT22;7635;56.696;13.002;2023-06-22T10:58:00;28.10;99.90
15072;DHT22;7635;56.696;13.002;2023-06-22T11:00:27;28.60;99.90
15072;DHT22;7635;56.696;13.002;2023-06-22T11:02:53;28.90;99.90
15072;DHT22;7635;56.696;13.002;2023-06-22T11:05:20;28.80;99.90
15072;DHT22;7635;56.696;13.002;2023-06-22T11:07:47;28.80;99.90
15072;DHT22;7635;56.696;13.002;2023-06-22T11:10:15;29.00;99.90
15072;DHT22;7635;56.696;13.002;2023-06-22T11:12:43;29.20;99.90
15072;DHT22;7635;56.696;13.002;2023-06-22T11:15:10;29.00;99.90
15072;DHT22;7635;56.696;13.002;2023-06-22T11:17:36;28.80;99.90
15072;DHT22;7635;56.696;13.002;2023-06-22T11:20:04;28.40;99.90
15072;DHT22;7635;56.696;13.002;2023-06-22T11:22:36;28.00;99.90
15072;DHT22;7635;56.696;13.002;2023-06-22T11:25:03;28.20;99.90
15072;DHT22;7635;56.696;13.002;2023-06-22T11:27:30;27.90;99.90
15072;DHT22;7635;56.696;13.002;2023-06-22T11:29:58;27.50;99.90
15072;DHT22;7635;56.696;13.002;2023-06-22T11:32:25;27.30;99.90
15072;DHT22;7635;56.696;13.002;2023-06-22T11:34:51;27.20;99.90
15072;DHT22;7635;56.696;13.002;2023-06-22T11:37:18;27.60;99.90
15072;DHT22;7635;56.696;13.002;2023-06-22T11:39:45;28.10;99.90
15072;DHT22;7635;56.696;13.002;2023-06-22T11:42:11;28.00;99.90
15072;DHT22;7635;56.696;13.002;2023-06-22T11:44:38;28.30;99.90
15072;DHT22;7635;56.696;13.002;2023-06-22T11:47:06;28.40;99.90
15072;DHT22;7635;56.696;13.002;2023-06-22T11:49:33;28.70;99.90
15072;DHT22;7635;56.696;13.002;2023-06-22T11:52:00;29.00;99.90
15072;DHT22;7635;56.696;13.002;2023-06-22T11:54:26;29.00;99.90
15072;DHT22;7635;56.696;13.002;2023-06-22T11:56:53;29.10;99.90
15072;DHT22;7635;56.696;13.002;2023-06-22T11:59:20;29.30;99.90
15072;DHT22;7635;56.696;13.002;2023-06-22T12:01:47;29.30;99.90
15072;DHT22;7635;56.696;13.002;2023-06-22T12:04:16;29.00;99.90
15072;DHT22;7635;56.696;13.002;2023-06-22T12:06:43;29.30;99.90
15072;DHT22;7635;56.696;13.002;2023-06-22T12:09:10;29.30;99.90
15072;DHT22;7635;56.696;13.002;2023-06-22T12:11:39;29.20;99.90
15072;DHT22;7635;56.696;13.002;2023-06-22T12:14:05;28.90;99.90
15072;DHT22;7635;56.696;13.002;2023-06-22T12:16:32;28.80;99.90
15072;DHT22;7635;56.696;13.002;2023-06-22T12:18:59;28.90;99.90
15072;DHT22;7635;56.696;13.002;2023-06-22T12:21:27;28.80;99.90
15072;DHT22;7635;56.696;13.002;2023-06-22T12:23:54;28.70;99.90
15072;DHT22;7635;56.696;13.002;2023-06-22T12:26:21;28.90;99.90
15072;DHT22;7635;56.696;13.002;2023-06-22T12:28:48;29.00;99.90
15072;DHT22;7635;56.696;13.002;2023-06-22T12:31:15;29.00;99.90
15072;DHT22;7635;56.696;13.002;2023-06-22T12:33:41;29.10;99.90
15072;DHT22;7635;56.696;13.002;2023-06-22T12:36:08;29.20;99.90
15072;DHT22;7635;56.696;13.002;2023-06-22T12:38:36;29.10;99.90
15072;DHT22;7635;56.696;13.002;2023-06-22T12:41:03;29.20;99.90
15072;DHT22;7635;56.696;13.002;2023-06-22T12:43:29;29.00;99.90
15072;DHT22;7635;56.696;13.002;2023-06-22T12:45:56;29.10;99.90
15072;DHT22;7635;56.696;13.002;2023-06-22T12:48:23;28.90;99.90
15072;DHT22;7635;56.696;13.002;2023-06-22T12:50:50;28.60;99.90
15072;DHT22;7635;56.696;13.002;2023-06-22T12:53:17;28.50;99.90
15072;DHT22;7635;56.696;13.002;2023-06-22T12:55:45;28.20;99.90
15072;DHT22;7635;56.696;13.002;2023-06-22T12:58:12;28.00;99.90
15072;DHT22;7635;56.696;13.002;2023-06-22T13:00:38;27.80;99.90
15072;DHT22;7635;56.696;13.002;2023-06-22T13:03:05;27.80;99.90
15072;DHT22;7635;56.696;13.002;2023-06-22T13:05:32;27.90;99.90
15072;DHT22;7635;56.696;13.002;2023-06-22T13:08:00;27.90;99.90
15072;DHT22;7635;56.696;13.002;2023-06-22T13:10:27;27.90;99.90
15072;DHT22;7635;56.696;13.002;2023-06-22T13:12:55;27.90;99.90
15072;DHT22;7635;56.696;13.002;2023-06-22T13:15:26;27.90;99.90
15072;DHT22;7635;56.696;13.002;2023-06-22T13:17:53;27.80;99.90
15072;DHT22;7635;56.696;13.002;2023-06-22T13:20:20;27.90;99.90
15072;DHT22;7635;56.696;13.002;2023-06-22T13:22:47;28.00;99.90
15072;DHT22;7635;56.696;13.002;2023-06-22T13:25:14;28.10;99.90
15072;DHT22;7635;56.696;13.002;2023-06-22T13:27:44;28.20;99.90
15072;DHT22;7635;56.696;13.002;2023-06-22T13:30:13;28.20;99.90
15072;DHT22;7635;56.696;13.002;2023-06-22T13:32:40;28.30;99.90
15072;DHT22;7635;56.696;13.002;2023-06-22T13:35:08;28.40;99.90
15072;DHT22;7635;56.696;13.002;2023-06-22T13:37:35;28.50;99.90
15072;DHT22;7635;56.696;13.002;2023-06-22T13:40:02;28.40;99.90
15072;DHT22;7635;56.696;13.002;2023-06-22T13:42:30;28.20;99.90
15072;DHT22;7635;56.696;13.002;2023-06-22T13:44:57;27.90;99.90
15072;DHT22;7635;56.696;13.002;2023-06-22T13:47:25;27.80;99.90
15072;DHT22;7635;56.696;13.002;2023-06-22T13:49:52;27.70;99.90
15072;DHT22;7635;56.696;13.002;2023-06-22T13:52:18;27.70;99.90
15072;DHT22;7635;56.696;13.002;2023-06-22T13:54:45;27.80;99.90
15072;DHT22;7635;56.696;13.002;2023-06-22T13:57:12;27.90;99.90
15072;DHT22;7635;56.696;13.002;2023-06-22T13:59:38;27.80;99.90
15072;DHT22;7635;56.696;13.002;2023-06-22T14:02:06;27.80;99.90
15072;DHT22;7635;56.696;13.002;2023-06-22T14:04:34;27.80;99.90
15072;DHT22;7635;56.696;13.002;2023-06-22T14:07:00;27.80;99.90
15072;DHT22;7635;56.696;13.002;2023-06-22T14:09:27;27.70;99.90
15072;DHT22;7635;56.696;13.002;2023-06-22T14:11:54;27.40;99.90
15072;DHT22;7635;56.696;13.002;2023-06-22T14:14:21;27.20;99.90
15072;DHT22;7635;56.696;13.002;2023-06-22T14:16:48;27.00;99.90
15072;DHT22;7635;56.696;13.002;2023-06-22T14:19:17;26.90;99.90
15072;DHT22;7635;56.696;13.002;2023-06-22T14:21:45;26.80;99.90
15072;DHT22;7635;56.696;13.002;2023-06-22T14:24:11;26.80;99.90
15072;DHT22;7635;56.696;13.002;2023-06-22T14:26:38;26.90;99.90
15072;DHT22;7635;56.696;13.002;2023-06-22T14:29:05;26.80;99.90
15072;DHT22;7635;56.696;13.002;2023-06-22T14:31:31;26.70;99.90
15072;DHT22;7635;56.696;13.002;2023-06-22T14:33:58;26.80;99.90
15072;DHT22;7635;56.696;13.002;2023-06-22T14:36:26;26.80;99.90
15072;DHT22;7635;56.696;13.002;2023-06-22T14:38:54;26.80;99.90
15072;DHT22;7635;56.696;13.002;2023-06-22T14:41:20;26.90;99.90
15072;DHT22;7635;56.696;13.002;2023-06-22T14:43:47;26.90;99.90
15072;DHT22;7635;56.696;13.002;2023-06-22T14:46:15;27.00;99.90
15072;DHT22;7635;56.696;13.002;2023-06-22T14:48:42;27.10;99.90
15072;DHT22;7635;56.696;13.002;2023-06-22T14:51:09;27.10;99.90
15072;DHT22;7635;56.696;13.002;2023-06-22T14:53:37;26.90;99.90
15072;DHT22;7635;56.696;13.002;2023-06-22T14:56:05;26.80;99.90
15072;DHT22;7635;56.696;13.002;2023-06-22T14:58:33;26.60;99.90
15072;DHT22;7635;56.696;13.002;2023-06-22T15:01:01;26.40;99.90
15072;DHT22;7635;56.696;13.002;2023-06-22T15:03:28;26.20;99.90
15072;DHT22;7635;56.696;13.002;2023-06-22T15:05:56;25.90;99.90
15072;DHT22;7635;56.696;13.002;2023-06-22T15:08:23;25.90;99.90
15072;DHT22;7635;56.696;13.002;2023-06-22T15:10:51;25.90;99.90
15072;DHT22;7635;56.696;13.002;2023-06-22T15:13:19;25.90;99.90
15072;DHT22;7635;56.696;13.002;2023-06-22T15:15:46;25.90;99.90
15072;DHT22;7635;56.696;13.002;2023-06-22T15:18:13;25.90;99.90
15072;DHT22;7635;56.696;13.002;2023-06-22T15:20:40;25.70;99.90
15072;DHT22;7635;56.696;13.002;2023-06-22T15:23:07;25.60;99.90
15072;DHT22;7635;56.696;13.002;2023-06-22T15:25:34;25.40;99.90
15072;DHT22;7635;56.696;13.002;2023-06-22T15:28:01;25.10;99.90
15072;DHT22;7635;56.696;13.002;2023-06-22T15:30:29;25.10;99.90